sensor_id;sensor_type;location;lat;lon;timestamp;P1;durP1;ratioP1;P2;durP2;ratioP2
53907;SDS011;40469;47.998;7.794;2022-07-29T00:01:14;5.82;;;3.95;;
53907;SDS011;40469;47.998;7.794;2022-07-29T00:03:40;6.55;;;4.10;;
53907;SDS011;40469;47.998;7.794;2022-07-29T00:06:06;9.38;;;4.90;;
53907;SDS011;40469;47.998;7.794;2022-07-29T00:08:31;6.13;;;4.13;;
53907;SDS011;40469;47.998;7.794;2022-07-29T00:10:56;5.10;;;3.42;;
53907;SDS011;40469;47.998;7.794;2022-07-29T00:13:22;4.68;;;3.80;;
53907;SDS011;40469;47.998;7.794;2022-07-29T00:15:47;6.68;;;3.50;;
53907;SDS011;40469;47.998;7.794;2022-07-29T00:18:13;6.57;;;4.15;;
53907;SDS011;40469;47.998;7.794;2022-07-29T00:20:38;9.30;;;3.80;;
53907;SDS011;40469;47.998;7.794;2022-07-29T00:23:03;6.05;;;3.70;;
53907;SDS011;40469;47.998;7.794;2022-07-29T00:25:29;8.27;;;3.35;;
53907;SDS011;40469;47.998;7.794;2022-07-29T00:27:54;4.20;;;3.63;;
53907;SDS011;40469;47.998;7.794;2022-07-29T00:30:19;5.47;;;3.67;;
53907;SDS011;40469;47.998;7.794;2022-07-29T00:32:45;4.65;;;3.20;;
53907;SDS011;40469;47.998;7.794;2022-07-29T00:35:10;4.70;;;3.38;;
53907;SDS011;40469;47.998;7.794;2022-07-29T00:37:54;5.40;;;3.67;;
53907;SDS011;40469;47.998;7.794;2022-07-29T00:40:19;5.03;;;3.60;;
53907;SDS011;40469;47.998;7.794;2022-07-29T00:42:48;7.32;;;3.70;;
53907;SDS011;40469;47.998;7.794;2022-07-29T00:45:16;7.82;;;3.75;;
53907;SDS011;40469;47.998;7.794;2022-07-29T00:47:42;4.88;;;3.50;;
53907;SDS011;40469;47.998;7.794;2022-07-29T00:50:09;7.78;;;4.30;;
53907;SDS011;40469;47.998;7.794;2022-07-29T00:52:37;7.53;;;3.83;;
53907;SDS011;40469;47.998;7.794;2022-07-29T00:55:05;4.93;;;3.20;;
53907;SDS011;40469;47.998;7.794;2022-07-29T00:57:32;5.63;;;3.55;;
53907;SDS011;40469;47.998;7.794;2022-07-29T00:59:59;5.70;;;3.97;;
53907;SDS011;40469;47.998;7.794;2022-07-29T01:02:24;5.68;;;3.75;;
53907;SDS011;40469;47.998;7.794;2022-07-29T01:04:50;6.30;;;3.70;;
53907;SDS011;40469;47.998;7.794;2022-07-29T01:07:16;8.65;;;4.55;;
53907;SDS011;40469;47.998;7.794;2022-07-29T01:09:42;5.05;;;3.53;;
53907;SDS011;40469;47.998;7.794;2022-07-29T01:12:10;6.18;;;3.67;;
53907;SDS011;40469;47.998;7.794;2022-07-29T01:14:37;5.70;;;3.80;;
53907;SDS011;40469;47.998;7.794;2022-07-29T01:31:22;5.32;;;3.45;;
53907;SDS011;40469;47.998;7.794;2022-07-29T01:33:57;4.75;;;3.42;;
53907;SDS011;40469;47.998;7.794;2022-07-29T01:36:36;5.38;;;3.53;;
53907;SDS011;40469;47.998;7.794;2022-07-29T01:39:12;7.43;;;3.35;;
53907;SDS011;40469;47.998;7.794;2022-07-29T01:41:48;6.90;;;4.00;;
53907;SDS011;40469;47.998;7.794;2022-07-29T01:44:38;4.65;;;3.63;;
53907;SDS011;40469;47.998;7.794;2022-07-29T01:47:12;3.28;;;2.90;;
53907;SDS011;40469;47.998;7.794;2022-07-29T01:49:43;5.25;;;3.75;;
53907;SDS011;40469;47.998;7.794;2022-07-29T01:52:19;6.32;;;3.55;;
53907;SDS011;40469;47.998;7.794;2022-07-29T01:54:50;5.85;;;3.55;;
53907;SDS011;40469;47.998;7.794;2022-07-29T01:57:20;3.70;;;3.08;;
53907;SDS011;40469;47.998;7.794;2022-07-29T01:59:48;5.03;;;3.30;;
53907;SDS011;40469;47.998;7.794;2022-07-29T02:02:16;5.35;;;3.08;;
53907;SDS011;40469;47.998;7.794;2022-07-29T02:04:43;6.47;;;3.45;;
53907;SDS011;40469;47.998;7.794;2022-07-29T02:07:13;3.80;;;3.17;;
53907;SDS011;40469;47.998;7.794;2022-07-29T02:09:41;6.03;;;3.55;;
53907;SDS011;40469;47.998;7.794;2022-07-29T02:12:09;4.88;;;3.55;;
53907;SDS011;40469;47.998;7.794;2022-07-29T02:14:37;4.85;;;3.65;;
53907;SDS011;40469;47.998;7.794;2022-07-29T02:17:05;5.32;;;3.33;;
53907;SDS011;40469;47.998;7.794;2022-07-29T02:19:32;6.22;;;3.40;;
53907;SDS011;40469;47.998;7.794;2022-07-29T02:21:59;3.83;;;3.00;;
53907;SDS011;40469;47.998;7.794;2022-07-29T02:24:26;4.93;;;3.38;;
53907;SDS011;40469;47.998;7.794;2022-07-29T02:26:53;8.10;;;3.33;;
53907;SDS011;40469;47.998;7.794;2022-07-29T02:29:22;5.35;;;3.50;;
53907;SDS011;40469;47.998;7.794;2022-07-29T02:31:51;6.22;;;3.30;;
53907;SDS011;40469;47.998;7.794;2022-07-29T02:34:19;7.43;;;3.25;;
53907;SDS011;40469;47.998;7.794;2022-07-29T02:36:46;5.95;;;3.45;;
53907;SDS011;40469;47.998;7.794;2022-07-29T02:39:12;5.90;;;3.63;;
53907;SDS011;40469;47.998;7.794;2022-07-29T02:41:50;6.40;;;3.53;;
53907;SDS011;40469;47.998;7.794;2022-07-29T02:44:18;9.23;;;3.13;;
53907;SDS011;40469;47.998;7.794;2022-07-29T02:46:46;6.47;;;3.30;;
53907;SDS011;40469;47.998;7.794;2022-07-29T02:49:17;5.88;;;3.03;;
53907;SDS011;40469;47.998;7.794;2022-07-29T02:51:55;4.05;;;3.15;;
53907;SDS011;40469;47.998;7.794;2022-07-29T02:54:33;7.03;;;3.72;;
53907;SDS011;40469;47.998;7.794;2022-07-29T03:00:07;4.82;;;3.33;;
53907;SDS011;40469;47.998;7.794;2022-07-29T03:02:36;4.82;;;3.45;;
53907;SDS011;40469;47.998;7.794;2022-07-29T03:05:05;5.57;;;3.35;;
53907;SDS011;40469;47.998;7.794;2022-07-29T03:07:33;6.50;;;3.83;;
53907;SDS011;40469;47.998;7.794;2022-07-29T03:10:00;6.15;;;3.97;;
53907;SDS011;40469;47.998;7.794;2022-07-29T03:12:26;4.82;;;3.67;;
53907;SDS011;40469;47.998;7.794;2022-07-29T03:14:53;6.70;;;3.60;;
53907;SDS011;40469;47.998;7.794;2022-07-29T03:17:20;5.65;;;3.75;;
53907;SDS011;40469;47.998;7.794;2022-07-29T03:19:46;10.13;;;3.85;;
53907;SDS011;40469;47.998;7.794;2022-07-29T03:22:12;6.32;;;3.50;;
53907;SDS011;40469;47.998;7.794;2022-07-29T03:24:39;7.70;;;4.10;;
53907;SDS011;40469;47.998;7.794;2022-07-29T03:27:04;7.30;;;4.78;;
53907;SDS011;40469;47.998;7.794;2022-07-29T03:29:30;8.15;;;3.45;;
53907;SDS011;40469;47.998;7.794;2022-07-29T03:31:56;5.82;;;3.33;;
53907;SDS011;40469;47.998;7.794;2022-07-29T03:34:22;3.85;;;3.45;;
53907;SDS011;40469;47.998;7.794;2022-07-29T03:36:47;6.03;;;3.60;;
53907;SDS011;40469;47.998;7.794;2022-07-29T03:39:14;5.78;;;3.88;;
53907;SDS011;40469;47.998;7.794;2022-07-29T03:41:46;6.22;;;3.40;;
53907;SDS011;40469;47.998;7.794;2022-07-29T03:44:15;5.95;;;3.67;;
53907;SDS011;40469;47.998;7.794;2022-07-29T03:46:43;6.68;;;3.75;;
53907;SDS011;40469;47.998;7.794;2022-07-29T03:49:09;5.75;;;3.78;;
53907;SDS011;40469;47.998;7.794;2022-07-29T03:51:36;4.60;;;3.50;;
53907;SDS011;40469;47.998;7.794;2022-07-29T03:54:03;6.50;;;3.63;;
53907;SDS011;40469;47.998;7.794;2022-07-29T03:56:30;7.40;;;4.05;;
53907;SDS011;40469;47.998;7.794;2022-07-29T03:58:59;6.75;;;3.72;;
53907;SDS011;40469;47.998;7.794;2022-07-29T04:01:27;9.13;;;4.50;;
53907;SDS011;40469;47.998;7.794;2022-07-29T04:03:54;5.90;;;4.07;;
53907;SDS011;40469;47.998;7.794;2022-07-29T04:06:20;4.88;;;3.55;;
53907;SDS011;40469;47.998;7.794;2022-07-29T04:08:45;5.30;;;3.50;;
53907;SDS011;40469;47.998;7.794;2022-07-29T04:11:11;6.25;;;3.63;;
53907;SDS011;40469;47.998;7.794;2022-07-29T04:13:37;5.80;;;3.80;;
53907;SDS011;40469;47.998;7.794;2022-07-29T04:16:02;7.95;;;3.50;;
53907;SDS011;40469;47.998;7.794;2022-07-29T04:18:28;4.72;;;4.15;;
53907;SDS011;40469;47.998;7.794;2022-07-29T04:20:53;8.68;;;3.90;;
53907;SDS011;40469;47.998;7.794;2022-07-29T04:23:19;5.50;;;3.53;;
53907;SDS011;40469;47.998;7.794;2022-07-29T04:25:44;5.80;;;3.65;;
53907;SDS011;40469;47.998;7.794;2022-07-29T04:28:10;7.25;;;3.53;;
53907;SDS011;40469;47.998;7.794;2022-07-29T04:30:36;5.97;;;3.47;;
53907;SDS011;40469;47.998;7.794;2022-07-29T04:33:05;8.23;;;3.58;;
53907;SDS011;40469;47.998;7.794;2022-07-29T04:35:35;5.70;;;3.70;;
53907;SDS011;40469;47.998;7.794;2022-07-29T04:38:02;7.97;;;3.50;;
53907;SDS011;40469;47.998;7.794;2022-07-29T04:40:28;6.55;;;3.60;;
53907;SDS011;40469;47.998;7.794;2022-07-29T04:42:54;5.65;;;3.78;;
53907;SDS011;40469;47.998;7.794;2022-07-29T04:45:19;4.55;;;3.38;;
53907;SDS011;40469;47.998;7.794;2022-07-29T04:47:45;4.90;;;3.67;;
53907;SDS011;40469;47.998;7.794;2022-07-29T04:50:10;6.85;;;3.65;;
53907;SDS011;40469;47.998;7.794;2022-07-29T04:52:35;4.97;;;3.72;;
53907;SDS011;40469;47.998;7.794;2022-07-29T04:55:02;8.30;;;5.45;;
53907;SDS011;40469;47.998;7.794;2022-07-29T04:57:28;6.43;;;3.67;;
53907;SDS011;40469;47.998;7.794;2022-07-29T04:59:53;6.57;;;4.03;;
53907;SDS011;40469;47.998;7.794;2022-07-29T05:02:19;5.60;;;3.60;;
53907;SDS011;40469;47.998;7.794;2022-07-29T05:04:44;4.25;;;3.53;;
53907;SDS011;40469;47.998;7.794;2022-07-29T05:07:10;4.50;;;3.75;;
53907;SDS011;40469;47.998;7.794;2022-07-29T05:09:35;8.20;;;4.13;;
53907;SDS011;40469;47.998;7.794;2022-07-29T05:12:00;5.90;;;3.70;;
53907;SDS011;40469;47.998;7.794;2022-07-29T05:14:26;6.32;;;3.47;;
53907;SDS011;40469;47.998;7.794;2022-07-29T05:16:51;6.15;;;3.85;;
53907;SDS011;40469;47.998;7.794;2022-07-29T05:19:17;5.38;;;3.65;;
53907;SDS011;40469;47.998;7.794;2022-07-29T05:21:44;6.55;;;3.33;;
53907;SDS011;40469;47.998;7.794;2022-07-29T05:25:10;8.75;;;3.10;;
53907;SDS011;40469;47.998;7.794;2022-07-29T05:27:38;5.00;;;3.45;;
53907;SDS011;40469;47.998;7.794;2022-07-29T05:30:04;4.68;;;3.55;;
53907;SDS011;40469;47.998;7.794;2022-07-29T05:32:40;6.93;;;3.65;;
53907;SDS011;40469;47.998;7.794;2022-07-29T05:35:14;5.30;;;3.70;;
53907;SDS011;40469;47.998;7.794;2022-07-29T05:37:40;6.68;;;3.80;;
53907;SDS011;40469;47.998;7.794;2022-07-29T05:42:59;6.97;;;3.58;;
53907;SDS011;40469;47.998;7.794;2022-07-29T05:45:43;3.53;;;3.10;;
53907;SDS011;40469;47.998;7.794;2022-07-29T05:48:08;6.32;;;3.60;;
53907;SDS011;40469;47.998;7.794;2022-07-29T05:50:34;5.18;;;3.50;;
53907;SDS011;40469;47.998;7.794;2022-07-29T05:53:00;5.43;;;3.70;;
53907;SDS011;40469;47.998;7.794;2022-07-29T05:55:25;6.20;;;3.50;;
53907;SDS011;40469;47.998;7.794;2022-07-29T05:57:51;5.60;;;3.20;;
53907;SDS011;40469;47.998;7.794;2022-07-29T06:00:20;4.65;;;3.00;;
53907;SDS011;40469;47.998;7.794;2022-07-29T06:02:55;6.80;;;4.00;;
53907;SDS011;40469;47.998;7.794;2022-07-29T06:07:56;7.50;;;3.40;;
53907;SDS011;40469;47.998;7.794;2022-07-29T06:10:21;9.15;;;4.10;;
53907;SDS011;40469;47.998;7.794;2022-07-29T06:12:47;8.35;;;3.70;;
53907;SDS011;40469;47.998;7.794;2022-07-29T06:15:13;6.78;;;3.75;;
53907;SDS011;40469;47.998;7.794;2022-07-29T06:17:41;5.03;;;3.50;;
53907;SDS011;40469;47.998;7.794;2022-07-29T06:20:07;6.63;;;3.42;;
53907;SDS011;40469;47.998;7.794;2022-07-29T06:22:33;5.95;;;3.53;;
53907;SDS011;40469;47.998;7.794;2022-07-29T06:24:58;5.53;;;3.22;;
53907;SDS011;40469;47.998;7.794;2022-07-29T06:27:25;5.95;;;3.08;;
53907;SDS011;40469;47.998;7.794;2022-07-29T06:29:51;4.60;;;2.92;;
53907;SDS011;40469;47.998;7.794;2022-07-29T06:32:17;4.70;;;3.25;;
53907;SDS011;40469;47.998;7.794;2022-07-29T06:34:49;6.38;;;3.30;;
53907;SDS011;40469;47.998;7.794;2022-07-29T06:37:15;6.53;;;3.85;;
53907;SDS011;40469;47.998;7.794;2022-07-29T06:39:42;6.20;;;3.50;;
53907;SDS011;40469;47.998;7.794;2022-07-29T06:42:08;10.77;;;3.28;;
53907;SDS011;40469;47.998;7.794;2022-07-29T06:44:34;4.68;;;3.22;;
53907;SDS011;40469;47.998;7.794;2022-07-29T06:47:00;7.00;;;3.17;;
53907;SDS011;40469;47.998;7.794;2022-07-29T06:49:29;9.90;;;3.35;;
53907;SDS011;40469;47.998;7.794;2022-07-29T06:51:57;9.07;;;3.30;;
53907;SDS011;40469;47.998;7.794;2022-07-29T06:54:25;5.20;;;3.03;;
53907;SDS011;40469;47.998;7.794;2022-07-29T06:56:54;5.07;;;2.83;;
53907;SDS011;40469;47.998;7.794;2022-07-29T06:59:25;9.00;;;2.83;;
53907;SDS011;40469;47.998;7.794;2022-07-29T07:01:51;7.43;;;2.83;;
53907;SDS011;40469;47.998;7.794;2022-07-29T07:04:16;5.43;;;2.70;;
53907;SDS011;40469;47.998;7.794;2022-07-29T07:06:42;8.68;;;2.72;;
53907;SDS011;40469;47.998;7.794;2022-07-29T07:09:07;6.43;;;3.30;;
53907;SDS011;40469;47.998;7.794;2022-07-29T07:11:33;8.10;;;3.40;;
53907;SDS011;40469;47.998;7.794;2022-07-29T07:13:59;4.32;;;2.65;;
53907;SDS011;40469;47.998;7.794;2022-07-29T07:16:25;7.82;;;2.70;;
53907;SDS011;40469;47.998;7.794;2022-07-29T07:18:50;4.32;;;2.83;;
53907;SDS011;40469;47.998;7.794;2022-07-29T07:21:19;5.97;;;2.92;;
53907;SDS011;40469;47.998;7.794;2022-07-29T07:23:45;4.60;;;2.97;;
53907;SDS011;40469;47.998;7.794;2022-07-29T07:26:17;4.38;;;2.78;;
53907;SDS011;40469;47.998;7.794;2022-07-29T07:28:42;5.53;;;3.33;;
53907;SDS011;40469;47.998;7.794;2022-07-29T07:31:08;7.03;;;2.95;;
53907;SDS011;40469;47.998;7.794;2022-07-29T07:33:34;5.28;;;3.05;;
53907;SDS011;40469;47.998;7.794;2022-07-29T07:36:00;6.15;;;3.42;;
53907;SDS011;40469;47.998;7.794;2022-07-29T07:38:28;8.50;;;3.13;;
53907;SDS011;40469;47.998;7.794;2022-07-29T07:40:57;5.65;;;3.03;;
53907;SDS011;40469;47.998;7.794;2022-07-29T07:43:23;7.05;;;3.10;;
53907;SDS011;40469;47.998;7.794;2022-07-29T07:45:57;4.45;;;3.25;;
53907;SDS011;40469;47.998;7.794;2022-07-29T07:48:23;5.32;;;3.17;;
53907;SDS011;40469;47.998;7.794;2022-07-29T07:50:49;7.40;;;3.55;;
53907;SDS011;40469;47.998;7.794;2022-07-29T07:53:17;5.25;;;3.28;;
53907;SDS011;40469;47.998;7.794;2022-07-29T07:55:43;5.70;;;3.40;;
53907;SDS011;40469;47.998;7.794;2022-07-29T07:58:10;7.32;;;3.40;;
53907;SDS011;40469;47.998;7.794;2022-07-29T08:00:36;7.07;;;3.15;;
53907;SDS011;40469;47.998;7.794;2022-07-29T08:03:02;4.78;;;2.83;;
53907;SDS011;40469;47.998;7.794;2022-07-29T08:05:28;5.70;;;2.80;;
53907;SDS011;40469;47.998;7.794;2022-07-29T08:07:57;5.57;;;3.28;;
53907;SDS011;40469;47.998;7.794;2022-07-29T08:10:26;7.47;;;3.20;;
53907;SDS011;40469;47.998;7.794;2022-07-29T08:13:10;5.57;;;2.83;;
53907;SDS011;40469;47.998;7.794;2022-07-29T08:15:38;8.45;;;2.80;;
53907;SDS011;40469;47.998;7.794;2022-07-29T08:18:06;3.65;;;2.80;;
53907;SDS011;40469;47.998;7.794;2022-07-29T08:20:35;6.32;;;2.72;;
53907;SDS011;40469;47.998;7.794;2022-07-29T08:23:10;6.10;;;2.65;;
53907;SDS011;40469;47.998;7.794;2022-07-29T08:25:36;4.95;;;2.78;;
53907;SDS011;40469;47.998;7.794;2022-07-29T08:28:03;5.72;;;2.72;;
53907;SDS011;40469;47.998;7.794;2022-07-29T08:30:28;8.68;;;2.80;;
53907;SDS011;40469;47.998;7.794;2022-07-29T08:32:54;6.35;;;3.00;;
53907;SDS011;40469;47.998;7.794;2022-07-29T08:35:20;5.55;;;2.42;;
53907;SDS011;40469;47.998;7.794;2022-07-29T08:37:48;6.18;;;1.98;;
53907;SDS011;40469;47.998;7.794;2022-07-29T08:40:13;4.15;;;2.75;;
53907;SDS011;40469;47.998;7.794;2022-07-29T08:42:41;8.00;;;2.33;;
53907;SDS011;40469;47.998;7.794;2022-07-29T08:45:07;3.47;;;2.15;;
53907;SDS011;40469;47.998;7.794;2022-07-29T08:47:34;4.18;;;2.00;;
53907;SDS011;40469;47.998;7.794;2022-07-29T08:50:04;4.65;;;2.40;;
53907;SDS011;40469;47.998;7.794;2022-07-29T08:52:38;7.45;;;2.30;;
53907;SDS011;40469;47.998;7.794;2022-07-29T08:55:06;2.95;;;1.92;;
53907;SDS011;40469;47.998;7.794;2022-07-29T08:57:34;5.63;;;2.22;;
53907;SDS011;40469;47.998;7.794;2022-07-29T09:00:01;3.53;;;1.90;;
53907;SDS011;40469;47.998;7.794;2022-07-29T09:03:00;5.38;;;2.10;;
53907;SDS011;40469;47.998;7.794;2022-07-29T09:05:29;3.85;;;2.00;;
53907;SDS011;40469;47.998;7.794;2022-07-29T09:08:01;4.80;;;1.90;;
53907;SDS011;40469;47.998;7.794;2022-07-29T09:10:27;3.90;;;2.13;;
53907;SDS011;40469;47.998;7.794;2022-07-29T09:12:55;4.25;;;2.00;;
53907;SDS011;40469;47.998;7.794;2022-07-29T09:15:21;5.35;;;1.83;;
53907;SDS011;40469;47.998;7.794;2022-07-29T09:17:47;3.42;;;2.00;;
53907;SDS011;40469;47.998;7.794;2022-07-29T09:20:15;4.80;;;2.53;;
53907;SDS011;40469;47.998;7.794;2022-07-29T09:22:48;5.75;;;1.98;;
53907;SDS011;40469;47.998;7.794;2022-07-29T09:25:36;7.65;;;2.63;;
53907;SDS011;40469;47.998;7.794;2022-07-29T09:28:16;5.65;;;1.90;;
53907;SDS011;40469;47.998;7.794;2022-07-29T09:30:53;2.50;;;1.88;;
53907;SDS011;40469;47.998;7.794;2022-07-29T09:33:20;6.70;;;2.30;;
53907;SDS011;40469;47.998;7.794;2022-07-29T09:36:00;4.43;;;2.28;;
53907;SDS011;40469;47.998;7.794;2022-07-29T09:38:28;5.95;;;2.30;;
53907;SDS011;40469;47.998;7.794;2022-07-29T09:40:58;3.80;;;2.08;;
53907;SDS011;40469;47.998;7.794;2022-07-29T09:43:24;3.65;;;2.10;;
53907;SDS011;40469;47.998;7.794;2022-07-29T09:45:50;4.35;;;1.98;;
53907;SDS011;40469;47.998;7.794;2022-07-29T09:48:16;3.97;;;1.73;;
53907;SDS011;40469;47.998;7.794;2022-07-29T09:50:47;6.60;;;2.00;;
53907;SDS011;40469;47.998;7.794;2022-07-29T09:53:30;5.05;;;1.90;;
53907;SDS011;40469;47.998;7.794;2022-07-29T09:55:58;6.20;;;2.00;;
53907;SDS011;40469;47.998;7.794;2022-07-29T09:58:24;4.38;;;2.13;;
53907;SDS011;40469;47.998;7.794;2022-07-29T10:00:50;3.53;;;2.45;;
53907;SDS011;40469;47.998;7.794;2022-07-29T10:03:17;7.65;;;2.42;;
53907;SDS011;40469;47.998;7.794;2022-07-29T10:05:43;3.53;;;2.22;;
53907;SDS011;40469;47.998;7.794;2022-07-29T10:08:10;3.47;;;2.20;;
53907;SDS011;40469;47.998;7.794;2022-07-29T10:10:40;7.68;;;2.17;;
53907;SDS011;40469;47.998;7.794;2022-07-29T10:13:09;7.63;;;2.42;;
53907;SDS011;40469;47.998;7.794;2022-07-29T10:15:41;6.03;;;2.28;;
53907;SDS011;40469;47.998;7.794;2022-07-29T10:18:09;5.05;;;2.28;;
53907;SDS011;40469;47.998;7.794;2022-07-29T10:20:35;4.38;;;2.00;;
53907;SDS011;40469;47.998;7.794;2022-07-29T10:23:01;4.00;;;2.10;;
53907;SDS011;40469;47.998;7.794;2022-07-29T10:25:27;11.00;;;2.22;;
53907;SDS011;40469;47.998;7.794;2022-07-29T10:27:53;4.15;;;2.53;;
53907;SDS011;40469;47.998;7.794;2022-07-29T10:30:20;3.25;;;1.88;;
53907;SDS011;40469;47.998;7.794;2022-07-29T10:38:52;5.22;;;2.17;;
53907;SDS011;40469;47.998;7.794;2022-07-29T10:41:31;5.28;;;2.25;;
53907;SDS011;40469;47.998;7.794;2022-07-29T10:46:42;3.10;;;2.35;;
53907;SDS011;40469;47.998;7.794;2022-07-29T10:49:12;5.85;;;2.60;;
53907;SDS011;40469;47.998;7.794;2022-07-29T10:51:54;6.53;;;2.33;;
53907;SDS011;40469;47.998;7.794;2022-07-29T10:54:41;4.88;;;2.20;;
53907;SDS011;40469;47.998;7.794;2022-07-29T10:57:13;4.22;;;2.38;;
53907;SDS011;40469;47.998;7.794;2022-07-29T10:59:39;5.95;;;2.47;;
53907;SDS011;40469;47.998;7.794;2022-07-29T11:04:59;5.65;;;2.63;;
53907;SDS011;40469;47.998;7.794;2022-07-29T11:07:26;6.93;;;2.40;;
53907;SDS011;40469;47.998;7.794;2022-07-29T11:15:01;4.18;;;2.22;;
53907;SDS011;40469;47.998;7.794;2022-07-29T11:17:27;4.93;;;2.58;;
53907;SDS011;40469;47.998;7.794;2022-07-29T11:22:57;7.75;;;2.83;;
53907;SDS011;40469;47.998;7.794;2022-07-29T11:25:23;3.22;;;2.10;;
53907;SDS011;40469;47.998;7.794;2022-07-29T11:27:49;3.65;;;2.13;;
53907;SDS011;40469;47.998;7.794;2022-07-29T11:30:16;6.10;;;2.45;;
53907;SDS011;40469;47.998;7.794;2022-07-29T11:32:42;5.57;;;2.60;;
53907;SDS011;40469;47.998;7.794;2022-07-29T11:35:22;5.38;;;2.60;;
53907;SDS011;40469;47.998;7.794;2022-07-29T11:43:54;4.30;;;2.50;;
53907;SDS011;40469;47.998;7.794;2022-07-29T11:49:08;3.30;;;2.20;;
53907;SDS011;40469;47.998;7.794;2022-07-29T11:51:35;4.75;;;2.88;;
53907;SDS011;40469;47.998;7.794;2022-07-29T11:54:01;5.30;;;2.90;;
53907;SDS011;40469;47.998;7.794;2022-07-29T11:56:27;4.32;;;2.30;;
53907;SDS011;40469;47.998;7.794;2022-07-29T11:59:03;3.75;;;2.40;;
53907;SDS011;40469;47.998;7.794;2022-07-29T12:01:34;9.40;;;2.63;;
53907;SDS011;40469;47.998;7.794;2022-07-29T12:04:03;5.18;;;2.53;;
53907;SDS011;40469;47.998;7.794;2022-07-29T12:06:34;4.18;;;2.25;;
53907;SDS011;40469;47.998;7.794;2022-07-29T12:09:00;5.82;;;2.90;;
53907;SDS011;40469;47.998;7.794;2022-07-29T12:11:31;10.82;;;3.00;;
53907;SDS011;40469;47.998;7.794;2022-07-29T12:13:56;9.20;;;2.40;;
53907;SDS011;40469;47.998;7.794;2022-07-29T12:16:21;6.95;;;2.22;;
53907;SDS011;40469;47.998;7.794;2022-07-29T12:21:22;5.72;;;2.67;;
53907;SDS011;40469;47.998;7.794;2022-07-29T12:23:53;6.72;;;2.42;;
53907;SDS011;40469;47.998;7.794;2022-07-29T12:26:19;3.50;;;2.30;;
53907;SDS011;40469;47.998;7.794;2022-07-29T12:28:45;4.43;;;2.33;;
53907;SDS011;40469;47.998;7.794;2022-07-29T12:31:14;6.20;;;2.70;;
53907;SDS011;40469;47.998;7.794;2022-07-29T12:33:41;6.38;;;2.90;;
53907;SDS011;40469;47.998;7.794;2022-07-29T12:36:07;4.38;;;2.28;;
53907;SDS011;40469;47.998;7.794;2022-07-29T12:38:37;9.63;;;2.38;;
53907;SDS011;40469;47.998;7.794;2022-07-29T12:41:05;5.28;;;2.42;;
53907;SDS011;40469;47.998;7.794;2022-07-29T12:43:31;4.90;;;2.50;;
53907;SDS011;40469;47.998;7.794;2022-07-29T12:45:57;6.10;;;2.55;;
53907;SDS011;40469;47.998;7.794;2022-07-29T12:48:35;5.50;;;2.13;;
53907;SDS011;40469;47.998;7.794;2022-07-29T12:51:03;7.85;;;2.40;;
53907;SDS011;40469;47.998;7.794;2022-07-29T12:53:30;6.28;;;1.98;;
53907;SDS011;40469;47.998;7.794;2022-07-29T12:55:56;7.88;;;2.25;;
53907;SDS011;40469;47.998;7.794;2022-07-29T12:58:39;9.57;;;2.35;;
53907;SDS011;40469;47.998;7.794;2022-07-29T13:01:10;6.18;;;1.85;;
53907;SDS011;40469;47.998;7.794;2022-07-29T13:03:43;5.65;;;2.20;;
53907;SDS011;40469;47.998;7.794;2022-07-29T13:11:42;6.03;;;2.20;;
53907;SDS011;40469;47.998;7.794;2022-07-29T13:14:10;4.60;;;2.10;;
53907;SDS011;40469;47.998;7.794;2022-07-29T13:16:59;3.75;;;2.20;;
53907;SDS011;40469;47.998;7.794;2022-07-29T13:19:34;8.00;;;2.00;;
53907;SDS011;40469;47.998;7.794;2022-07-29T13:22:16;4.30;;;1.77;;
53907;SDS011;40469;47.998;7.794;2022-07-29T13:24:47;3.03;;;1.70;;
53907;SDS011;40469;47.998;7.794;2022-07-29T13:27:26;3.10;;;1.70;;
53907;SDS011;40469;47.998;7.794;2022-07-29T13:29:54;6.70;;;1.92;;
53907;SDS011;40469;47.998;7.794;2022-07-29T13:32:24;5.05;;;2.00;;
53907;SDS011;40469;47.998;7.794;2022-07-29T13:34:52;9.95;;;1.80;;
53907;SDS011;40469;47.998;7.794;2022-07-29T13:37:18;2.95;;;1.48;;
53907;SDS011;40469;47.998;7.794;2022-07-29T13:39:43;3.03;;;1.75;;
53907;SDS011;40469;47.998;7.794;2022-07-29T13:42:09;4.45;;;1.67;;
53907;SDS011;40469;47.998;7.794;2022-07-29T13:44:35;2.88;;;1.92;;
53907;SDS011;40469;47.998;7.794;2022-07-29T13:47:01;5.90;;;1.95;;
53907;SDS011;40469;47.998;7.794;2022-07-29T13:49:26;5.05;;;1.95;;
53907;SDS011;40469;47.998;7.794;2022-07-29T13:51:52;4.30;;;1.73;;
53907;SDS011;40469;47.998;7.794;2022-07-29T13:54:18;6.30;;;2.20;;
53907;SDS011;40469;47.998;7.794;2022-07-29T13:56:44;5.78;;;1.77;;
53907;SDS011;40469;47.998;7.794;2022-07-29T13:59:10;6.47;;;1.65;;
53907;SDS011;40469;47.998;7.794;2022-07-29T14:01:35;10.00;;;1.90;;
53907;SDS011;40469;47.998;7.794;2022-07-29T14:04:00;4.75;;;1.90;;
53907;SDS011;40469;47.998;7.794;2022-07-29T14:06:26;9.38;;;1.92;;
53907;SDS011;40469;47.998;7.794;2022-07-29T14:08:51;6.53;;;4.00;;
53907;SDS011;40469;47.998;7.794;2022-07-29T14:11:17;5.30;;;2.03;;
53907;SDS011;40469;47.998;7.794;2022-07-29T14:13:42;5.72;;;2.15;;
53907;SDS011;40469;47.998;7.794;2022-07-29T14:16:08;4.25;;;1.63;;
53907;SDS011;40469;47.998;7.794;2022-07-29T14:18:33;2.85;;;1.55;;
53907;SDS011;40469;47.998;7.794;2022-07-29T14:20:58;3.92;;;1.50;;
53907;SDS011;40469;47.998;7.794;2022-07-29T14:23:24;4.20;;;2.13;;
53907;SDS011;40469;47.998;7.794;2022-07-29T14:25:49;3.28;;;1.63;;
53907;SDS011;40469;47.998;7.794;2022-07-29T14:28:15;3.50;;;1.25;;
53907;SDS011;40469;47.998;7.794;2022-07-29T14:30:40;2.65;;;1.58;;
53907;SDS011;40469;47.998;7.794;2022-07-29T14:33:05;3.30;;;1.48;;
53907;SDS011;40469;47.998;7.794;2022-07-29T14:35:31;2.97;;;1.40;;
53907;SDS011;40469;47.998;7.794;2022-07-29T14:37:56;3.47;;;1.40;;
53907;SDS011;40469;47.998;7.794;2022-07-29T14:40:22;3.40;;;1.30;;
53907;SDS011;40469;47.998;7.794;2022-07-29T14:42:47;2.10;;;1.25;;
53907;SDS011;40469;47.998;7.794;2022-07-29T14:45:13;5.43;;;1.45;;
53907;SDS011;40469;47.998;7.794;2022-07-29T14:47:39;5.50;;;1.40;;
53907;SDS011;40469;47.998;7.794;2022-07-29T14:50:04;2.67;;;1.23;;
53907;SDS011;40469;47.998;7.794;2022-07-29T14:52:31;2.63;;;1.45;;
53907;SDS011;40469;47.998;7.794;2022-07-29T14:54:56;3.42;;;1.25;;
53907;SDS011;40469;47.998;7.794;2022-07-29T14:57:22;1.63;;;1.10;;
53907;SDS011;40469;47.998;7.794;2022-07-29T14:59:47;2.58;;;1.58;;
53907;SDS011;40469;47.998;7.794;2022-07-29T15:02:12;6.93;;;1.27;;
53907;SDS011;40469;47.998;7.794;2022-07-29T15:04:38;3.35;;;1.38;;
53907;SDS011;40469;47.998;7.794;2022-07-29T15:07:03;2.63;;;1.10;;
53907;SDS011;40469;47.998;7.794;2022-07-29T15:09:29;3.47;;;1.23;;
53907;SDS011;40469;47.998;7.794;2022-07-29T15:11:54;2.95;;;1.33;;
53907;SDS011;40469;47.998;7.794;2022-07-29T15:14:19;3.38;;;0.98;;
53907;SDS011;40469;47.998;7.794;2022-07-29T15:16:45;1.98;;;1.25;;
53907;SDS011;40469;47.998;7.794;2022-07-29T15:19:10;1.75;;;1.00;;
53907;SDS011;40469;47.998;7.794;2022-07-29T15:21:36;4.78;;;1.20;;
53907;SDS011;40469;47.998;7.794;2022-07-29T15:24:02;3.38;;;1.35;;
53907;SDS011;40469;47.998;7.794;2022-07-29T15:26:27;2.83;;;0.98;;
53907;SDS011;40469;47.998;7.794;2022-07-29T15:28:53;2.78;;;1.58;;
53907;SDS011;40469;47.998;7.794;2022-07-29T15:31:20;3.28;;;0.90;;
53907;SDS011;40469;47.998;7.794;2022-07-29T15:33:45;2.88;;;0.90;;
53907;SDS011;40469;47.998;7.794;2022-07-29T15:36:11;3.50;;;1.30;;
53907;SDS011;40469;47.998;7.794;2022-07-29T15:38:37;5.88;;;1.50;;
53907;SDS011;40469;47.998;7.794;2022-07-29T15:41:05;9.10;;;2.88;;
53907;SDS011;40469;47.998;7.794;2022-07-29T15:43:33;4.72;;;1.63;;
53907;SDS011;40469;47.998;7.794;2022-07-29T15:46:00;4.85;;;1.10;;
53907;SDS011;40469;47.998;7.794;2022-07-29T15:48:44;3.80;;;1.25;;
53907;SDS011;40469;47.998;7.794;2022-07-29T15:51:09;3.92;;;0.90;;
53907;SDS011;40469;47.998;7.794;2022-07-29T15:53:35;4.30;;;1.10;;